sensor_id;sensor_type;location;lat;lon;timestamp;pressure;altitude;pressure_sealevel;temperature;humidity
45113;BME280;30873;53.908;27.576;2023-04-08T00:01:44;1023.2;;;13.3;100
45113;BME280;30873;53.908;27.576;2023-04-08T00:05:54;1023.2;;;13.3;100
45113;BME280;30873;53.908;27.576;2023-04-08T00:11:16;1023.2;;;13.3;100
45113;BME280;30873;53.908;27.576;2023-04-08T00:16:44;1023.2;;;13.3;100
45113;BME280;30873;53.908;27.576;2023-04-08T00:21:28;1023.1;;;13.3;100
45113;BME280;30873;53.908;27.576;2023-04-08T00:26:46;1023.2;;;13.3;100
45113;BME280;30873;53.908;27.576;2023-04-08T00:31:16;1023.2;;;13.3;100
45113;BME280;30873;53.908;27.576;2023-04-08T00:36:04;1023.3;;;13.4;100
45113;BME280;30873;53.908;27.576;2023-04-08T00:41:46;1023.3;;;13.3;100
45113;BME280;30873;53.908;27.576;2023-04-08T00:46:31;1023.3;;;13.4;100
45113;BME280;30873;53.908;27.576;2023-04-08T00:51:46;1023.4;;;13.4;100
45113;BME280;30873;53.908;27.576;2023-04-08T00:56:04;1023.4;;;13.4;100
45113;BME280;30873;53.908;27.576;2023-04-08T01:01:18;1023.3;;;13.5;100
45113;BME280;30873;53.908;27.576;2023-04-08T01:06:48;1023.3;;;13.5;100
45113;BME280;30873;53.908;27.576;2023-04-08T01:11:16;1023.4;;;13.6;100
45113;BME280;30873;53.908;27.576;2023-04-08T01:16:46;1023.4;;;13.5;100
45113;BME280;30873;53.908;27.576;2023-04-08T01:20:54;1023.4;;;13.5;100
45113;BME280;30873;53.908;27.576;2023-04-08T01:26:19;1023.4;;;13.5;100
45113;BME280;30873;53.908;27.576;2023-04-08T01:31:46;1023.4;;;13.5;100
45113;BME280;30873;53.908;27.576;2023-04-08T01:36:28;1023.4;;;13.6;100
45113;BME280;30873;53.908;27.576;2023-04-08T01:41:46;1023.4;;;13.6;100
45113;BME280;30873;53.908;27.576;2023-04-08T01:45:54;1023.4;;;13.6;100
45113;BME280;30873;53.908;27.576;2023-04-08T01:50:54;1023.4;;;13.6;100
45113;BME280;30873;53.908;27.576;2023-04-08T01:56:14;1023.4;;;13.7;100
45113;BME280;30873;53.908;27.576;2023-04-08T02:01:30;1023.4;;;13.7;100
45113;BME280;30873;53.908;27.576;2023-04-08T02:06:44;1023.5;;;13.7;100
45113;BME280;30873;53.908;27.576;2023-04-08T02:10:54;1023.5;;;13.8;100
45113;BME280;30873;53.908;27.576;2023-04-08T02:16:21;1023.5;;;13.8;100
45113;BME280;30873;53.908;27.576;2023-04-08T02:20:56;1023.5;;;13.8;100
45113;BME280;30873;53.908;27.576;2023-04-08T02:26:31;1023.5;;;13.9;100
45113;BME280;30873;53.908;27.576;2023-04-08T02:31:30;1023.5;;;13.9;100
45113;BME280;30873;53.908;27.576;2023-04-08T02:35:55;1023.5;;;13.8;100
45113;BME280;30873;53.908;27.576;2023-04-08T02:41:18;1023.5;;;14;100
45113;BME280;30873;53.908;27.576;2023-04-08T02:46:31;1023.5;;;14.1;100
45113;BME280;30873;53.908;27.576;2023-04-08T02:51:34;1023.4;;;14.1;100
45113;BME280;30873;53.908;27.576;2023-04-08T02:56:46;1023.4;;;14;100
45113;BME280;30873;53.908;27.576;2023-04-08T03:00:54;1023.4;;;14;100
45113;BME280;30873;53.908;27.576;2023-04-08T03:06:08;1023.5;;;14;100
45113;BME280;30873;53.908;27.576;2023-04-08T03:10:54;1023.5;;;13.9;100
45113;BME280;30873;53.908;27.576;2023-04-08T03:16:28;1023.5;;;13.9;100
45113;BME280;30873;53.908;27.576;2023-04-08T03:21:44;1023.5;;;13.9;100
45113;BME280;30873;53.908;27.576;2023-04-08T03:26:16;1023.5;;;13.9;100
45113;BME280;30873;53.908;27.576;2023-04-08T03:30:55;1023.5;;;13.9;100
45113;BME280;30873;53.908;27.576;2023-04-08T03:36:18;1023.5;;;13.8;100
45113;BME280;30873;53.908;27.576;2023-04-08T03:41:28;1023.5;;;13.9;100
45113;BME280;30873;53.908;27.576;2023-04-08T03:46:46;1023.5;;;13.8;100
45113;BME280;30873;53.908;27.576;2023-04-08T03:51:08;1023.5;;;13.8;100
45113;BME280;30873;53.908;27.576;2023-04-08T03:56:18;1023.5;;;13.8;100
45113;BME280;30873;53.908;27.576;2023-04-08T04:01:00;1023.5;;;13.8;100
45113;BME280;30873;53.908;27.576;2023-04-08T04:06:30;1023.5;;;13.7;100
45113;BME280;30873;53.908;27.576;2023-04-08T04:11:45;1023.5;;;13.6;100
45113;BME280;30873;53.908;27.576;2023-04-08T04:15:54;1023.5;;;13.5;100
45113;BME280;30873;53.908;27.576;2023-04-08T04:21:19;1023.6;;;13.5;100
45113;BME280;30873;53.908;27.576;2023-04-08T04:26:18;1023.7;;;13.7;100
45113;BME280;30873;53.908;27.576;2023-04-08T04:31:30;1023.8;;;13.7;100
45113;BME280;30873;53.908;27.576;2023-04-08T04:36:46;1023.8;;;13.7;100
45113;BME280;30873;53.908;27.576;2023-04-08T04:40:55;1023.8;;;13.7;100
45113;BME280;30873;53.908;27.576;2023-04-08T04:46:45;1023.8;;;13.8;100
45113;BME280;30873;53.908;27.576;2023-04-08T04:51:19;1023.8;;;13.7;100
45113;BME280;30873;53.908;27.576;2023-04-08T04:56:30;1023.8;;;13.8;100
45113;BME280;30873;53.908;27.576;2023-04-08T05:01:46;1023.8;;;13.7;100
45113;BME280;30873;53.908;27.576;2023-04-08T05:06:18;1023.8;;;13.6;100
45113;BME280;30873;53.908;27.576;2023-04-08T05:10:54;1023.8;;;13.7;100
45113;BME280;30873;53.908;27.576;2023-04-08T05:15:55;1023.8;;;13.7;100
45113;BME280;30873;53.908;27.576;2023-04-08T05:21:29;1023.8;;;13.7;100
45113;BME280;30873;53.908;27.576;2023-04-08T05:26:45;1023.9;;;13.8;100
45113;BME280;30873;53.908;27.576;2023-04-08T05:31:15;1023.9;;;13.8;100
45113;BME280;30873;53.908;27.576;2023-04-08T05:36:43;1023.9;;;13.8;100
45113;BME280;30873;53.908;27.576;2023-04-08T05:40:55;1024;;;13.9;100
45113;BME280;30873;53.908;27.576;2023-04-08T05:45:55;1024;;;14;100
45113;BME280;30873;53.908;27.576;2023-04-08T05:51:35;1024.1;;;14.1;100
45113;BME280;30873;53.908;27.576;2023-04-08T05:56:15;1024.1;;;14.6;100
45113;BME280;30873;53.908;27.576;2023-04-08T06:01:45;1024.2;;;14.8;100
45113;BME280;30873;53.908;27.576;2023-04-08T06:06:08;1024.2;;;14.8;100
45113;BME280;30873;53.908;27.576;2023-04-08T06:11:05;1024.3;;;14.8;100
45113;BME280;30873;53.908;27.576;2023-04-08T06:16:35;1024.3;;;15;100
45113;BME280;30873;53.908;27.576;2023-04-08T06:21:13;1024.3;;;15.1;100
45113;BME280;30873;53.908;27.576;2023-04-08T06:26:47;1024.3;;;15.2;100
45113;BME280;30873;53.908;27.576;2023-04-08T06:31:07;1024.2;;;15.4;100
45113;BME280;30873;53.908;27.576;2023-04-08T06:36:05;1024.2;;;15.5;100
45113;BME280;30873;53.908;27.576;2023-04-08T06:41:33;1024.2;;;15.7;100
45113;BME280;30873;53.908;27.576;2023-04-08T06:46:05;1024.2;;;15.7;100
45113;BME280;30873;53.908;27.576;2023-04-08T06:51:45;1024.2;;;16;100
45113;BME280;30873;53.908;27.576;2023-04-08T06:56:05;1024.2;;;16.3;100
45113;BME280;30873;53.908;27.576;2023-04-08T07:01:05;1024.2;;;16.6;100
45113;BME280;30873;53.908;27.576;2023-04-08T07:06:33;1024.2;;;16.7;100
45113;BME280;30873;53.908;27.576;2023-04-08T07:11:15;1024.2;;;17.1;100
45113;BME280;30873;53.908;27.576;2023-04-08T07:16:33;1024.2;;;17.5;100
45113;BME280;30873;53.908;27.576;2023-04-08T07:20:55;1024.2;;;17.8;100
45113;BME280;30873;53.908;27.576;2023-04-08T07:26:15;1024.2;;;18.1;100
45113;BME280;30873;53.908;27.576;2023-04-08T07:31:35;1024.2;;;18.3;100
45113;BME280;30873;53.908;27.576;2023-04-08T07:36:15;1024.2;;;18.3;99.8
45113;BME280;30873;53.908;27.576;2023-04-08T07:41:33;1024.2;;;18.2;99.7
45113;BME280;30873;53.908;27.576;2023-04-08T07:46:05;1024.2;;;18.2;99.5
45113;BME280;30873;53.908;27.576;2023-04-08T07:51:15;1024.3;;;18.3;99.6
45113;BME280;30873;53.908;27.576;2023-04-08T07:56:33;1024.3;;;18.7;95.5
45113;BME280;30873;53.908;27.576;2023-04-08T08:01:17;1024.3;;;18.8;93.5
45113;BME280;30873;53.908;27.576;2023-04-08T08:06:47;1024.2;;;19;90.9
45113;BME280;30873;53.908;27.576;2023-04-08T08:10:55;1024.2;;;19.3;90.1
45113;BME280;30873;53.908;27.576;2023-04-08T08:16:15;1024.2;;;19.5;88.2
45113;BME280;30873;53.908;27.576;2023-04-08T08:21:35;1024.2;;;19.6;86.8
45113;BME280;30873;53.908;27.576;2023-04-08T08:26:15;1024.2;;;19.5;86.4
45113;BME280;30873;53.908;27.576;2023-04-08T08:31:47;1024.3;;;19.5;85.5
45113;BME280;30873;53.908;27.576;2023-04-08T08:36:17;1024.3;;;19.6;85.5
45113;BME280;30873;53.908;27.576;2023-04-08T08:41:15;1024.3;;;19.9;84
45113;BME280;30873;53.908;27.576;2023-04-08T08:46:29;1024.3;;;20;83.4
45113;BME280;30873;53.908;27.576;2023-04-08T08:51:06;1024.3;;;20.3;81.9
45113;BME280;30873;53.908;27.576;2023-04-08T08:56:43;1024.3;;;20.3;80.3
45113;BME280;30873;53.908;27.576;2023-04-08T09:01:31;1024.3;;;20.5;78.8
45113;BME280;30873;53.908;27.576;2023-04-08T09:06:17;1024.3;;;20.7;77.6
45113;BME280;30873;53.908;27.576;2023-04-08T09:11:33;1024.3;;;20.8;75.4
45113;BME280;30873;53.908;27.576;2023-04-08T09:22:02;1024.4;;;20.2;75.8
45113;BME280;30873;53.908;27.576;2023-04-08T09:26:17;1024.4;;;20.3;76.7
45113;BME280;30873;53.908;27.576;2023-04-08T09:31:17;1024.4;;;20.5;75.9
45113;BME280;30873;53.908;27.576;2023-04-08T09:36:49;1024.4;;;20.7;75.6
45113;BME280;30873;53.908;27.576;2023-04-08T09:41:32;1024.4;;;20.9;75.5
45113;BME280;30873;53.908;27.576;2023-04-08T09:56:25;1024.4;;;20.8;74.4
45113;BME280;30873;53.908;27.576;2023-04-08T10:01:49;1024.4;;;20.8;74.5
45113;BME280;30873;53.908;27.576;2023-04-08T10:06:17;1024.4;;;20.9;74.1
45113;BME280;30873;53.908;27.576;2023-04-08T10:11:35;1024.4;;;20.9;74
45113;BME280;30873;53.908;27.576;2023-04-08T10:16:16;1024.4;;;21;73.3
45113;BME280;30873;53.908;27.576;2023-04-08T10:21:34;1024.5;;;21.2;72.2
45113;BME280;30873;53.908;27.576;2023-04-08T10:26:47;1024.4;;;21.4;71.3
45113;BME280;30873;53.908;27.576;2023-04-08T10:31:13;1024.4;;;21.7;71.1
45113;BME280;30873;53.908;27.576;2023-04-08T10:36:33;1024.3;;;21.9;69.4
45113;BME280;30873;53.908;27.576;2023-04-08T10:41:07;1024.3;;;22.3;68
45113;BME280;30873;53.908;27.576;2023-04-08T10:46:36;1024.3;;;22.9;65.5
45113;BME280;30873;53.908;27.576;2023-04-08T10:51:49;1024.2;;;23.6;61.4
45113;BME280;30873;53.908;27.576;2023-04-08T10:56:49;1024.2;;;24.4;57.4
45113;BME280;30873;53.908;27.576;2023-04-08T11:01:38;1024.2;;;24.9;54.8
45113;BME280;30873;53.908;27.576;2023-04-08T11:06:25;1024.2;;;25.1;53.4
45113;BME280;30873;53.908;27.576;2023-04-08T11:11:35;1024.1;;;25.3;51.7
45113;BME280;30873;53.908;27.576;2023-04-08T11:16:49;1024.1;;;26.1;49.2
45113;BME280;30873;53.908;27.576;2023-04-08T11:21:31;1024.1;;;28.9;43.5
45113;BME280;30873;53.908;27.576;2023-04-08T11:26:35;1024;;;32.2;37.2
45113;BME280;30873;53.908;27.576;2023-04-08T11:31:17;1024;;;33;34
45113;BME280;30873;53.908;27.576;2023-04-08T11:36:35;1023.9;;;32.5;33.4
45113;BME280;30873;53.908;27.576;2023-04-08T11:41:49;1023.9;;;30.3;36
45113;BME280;30873;53.908;27.576;2023-04-08T11:46:17;1023.9;;;28.8;37.3
45113;BME280;30873;53.908;27.576;2023-04-08T11:51:33;1023.9;;;27.3;39.8
45113;BME280;30873;53.908;27.576;2023-04-08T11:56:21;1024;;;26.3;41.7
45113;BME280;30873;53.908;27.576;2023-04-08T12:01:35;1023.9;;;25.2;44.3
45113;BME280;30873;53.908;27.576;2023-04-08T12:06:49;1023.9;;;24.9;46.2
45113;BME280;30873;53.908;27.576;2023-04-08T12:11:17;1023.9;;;24.2;48.4
45113;BME280;30873;53.908;27.576;2023-04-08T12:16:35;1023.8;;;23.7;50.7
45113;BME280;30873;53.908;27.576;2023-04-08T12:20:55;1023.8;;;23.8;51
45113;BME280;30873;53.908;27.576;2023-04-08T12:26:35;1023.7;;;23.9;50.6
45113;BME280;30873;53.908;27.576;2023-04-08T12:31:49;1023.7;;;23.6;51.7
45113;BME280;30873;53.908;27.576;2023-04-08T12:36:31;1023.7;;;24.1;51.1
45113;BME280;30873;53.908;27.576;2023-04-08T12:41:35;1023.6;;;24.8;48.8
45113;BME280;30873;53.908;27.576;2023-04-08T12:45:55;1023.6;;;24.8;48.6
45113;BME280;30873;53.908;27.576;2023-04-08T12:51:35;1023.6;;;24;50
45113;BME280;30873;53.908;27.576;2023-04-08T12:56:47;1023.5;;;23.2;52.7
45113;BME280;30873;53.908;27.576;2023-04-08T13:01:05;1023.5;;;23.2;53.9
45113;BME280;30873;53.908;27.576;2023-04-08T13:06:33;1023.5;;;23.2;54.6
45113;BME280;30873;53.908;27.576;2023-04-08T13:11:06;1023.5;;;23;54.8
45113;BME280;30873;53.908;27.576;2023-04-08T13:16:19;1023.4;;;23.4;54.2
45113;BME280;30873;53.908;27.576;2023-04-08T13:21:47;1023.4;;;24;51.8
45113;BME280;30873;53.908;27.576;2023-04-08T13:26:17;1023.3;;;24.4;49.9
45113;BME280;30873;53.908;27.576;2023-04-08T13:31:33;1023.3;;;24.9;48.4
45113;BME280;30873;53.908;27.576;2023-04-08T13:36:05;1023.2;;;27.3;43.6
45113;BME280;30873;53.908;27.576;2023-04-08T13:41:49;1023.2;;;28.9;39.1
45113;BME280;30873;53.908;27.576;2023-04-08T13:46:47;1023.1;;;31.3;34.7
45113;BME280;30873;53.908;27.576;2023-04-08T13:51:17;1023;;;33.4;31
45113;BME280;30873;53.908;27.576;2023-04-08T13:56:47;1023;;;34.3;28.8
45113;BME280;30873;53.908;27.576;2023-04-08T14:00:55;1023;;;34.4;27.9
45113;BME280;30873;53.908;27.576;2023-04-08T14:06:33;1022.9;;;34.2;27.6
45113;BME280;30873;53.908;27.576;2023-04-08T14:11:47;1022.9;;;32.9;28.8
45113;BME280;30873;53.908;27.576;2023-04-08T14:16:31;1022.8;;;33.9;27.1
45113;BME280;30873;53.908;27.576;2023-04-08T14:21:49;1022.7;;;34.5;26.4
45113;BME280;30873;53.908;27.576;2023-04-08T14:26:07;1022.6;;;35;25.7
45113;BME280;30873;53.908;27.576;2023-04-08T14:31:35;1022.7;;;35.1;26.5
45113;BME280;30873;53.908;27.576;2023-04-08T14:36:49;1022.7;;;34.8;27.2
45113;BME280;30873;53.908;27.576;2023-04-08T14:41:17;1022.7;;;34.1;27.5
45113;BME280;30873;53.908;27.576;2023-04-08T14:46:49;1022.7;;;30.5;31
45113;BME280;30873;53.908;27.576;2023-04-08T14:50:55;1022.8;;;27.4;35.6
45113;BME280;30873;53.908;27.576;2023-04-08T14:56:35;1022.8;;;25.8;38.9
45113;BME280;30873;53.908;27.576;2023-04-08T15:01:49;1022.8;;;25;41.2
45113;BME280;30873;53.908;27.576;2023-04-08T15:06:01;1022.8;;;24.6;42.6
45113;BME280;30873;53.908;27.576;2023-04-08T15:11:49;1022.8;;;24.8;42.8
45113;BME280;30873;53.908;27.576;2023-04-08T15:15:55;1022.9;;;24.8;42.6
45113;BME280;30873;53.908;27.576;2023-04-08T15:21:35;1022.9;;;23.8;44.8
45113;BME280;30873;53.908;27.576;2023-04-08T15:26:49;1022.9;;;23.2;47.1
45113;BME280;30873;53.908;27.576;2023-04-08T15:31:17;1022.8;;;24.6;44.7
45113;BME280;30873;53.908;27.576;2023-04-08T15:36:49;1022.8;;;26.2;41.3
45113;BME280;30873;53.908;27.576;2023-04-08T15:40:55;1022.8;;;26.8;39.6
45113;BME280;30873;53.908;27.576;2023-04-08T15:46:33;1022.8;;;27.2;38.7
45113;BME280;30873;53.908;27.576;2023-04-08T15:51:35;1022.8;;;26.9;39
45113;BME280;30873;53.908;27.576;2023-04-08T15:56:17;1022.8;;;26.6;39.5
45113;BME280;30873;53.908;27.576;2023-04-08T16:01:49;1022.9;;;26.2;39.9
45113;BME280;30873;53.908;27.576;2023-04-08T16:06:07;1023;;;25.5;41.1
45113;BME280;30873;53.908;27.576;2023-04-08T16:11:33;1023;;;23.8;44.3
45113;BME280;30873;53.908;27.576;2023-04-08T16:16:49;1023;;;22.4;48.3
45113;BME280;30873;53.908;27.576;2023-04-08T16:20:55;1023.1;;;21.5;52.4
45113;BME280;30873;53.908;27.576;2023-04-08T16:26:47;1023.2;;;20.9;56.2
45113;BME280;30873;53.908;27.576;2023-04-08T16:31:05;1023.2;;;20.4;59.3
45113;BME280;30873;53.908;27.576;2023-04-08T16:36:35;1023.3;;;19.9;62.8
45113;BME280;30873;53.908;27.576;2023-04-08T16:41:49;1023.4;;;19.5;66.8
45113;BME280;30873;53.908;27.576;2023-04-08T16:46:17;1023.4;;;19.2;69.6
45113;BME280;30873;53.908;27.576;2023-04-08T16:51:49;1023.4;;;19;72.3
45113;BME280;30873;53.908;27.576;2023-04-08T16:56:13;1023.5;;;18.7;74.8
45113;BME280;30873;53.908;27.576;2023-04-08T17:01:35;1023.5;;;18.5;77.3
45113;BME280;30873;53.908;27.576;2023-04-08T17:06:47;1023.6;;;18.3;79.7
45113;BME280;30873;53.908;27.576;2023-04-08T17:11:03;1023.7;;;18.1;82.4
45113;BME280;30873;53.908;27.576;2023-04-08T17:16:49;1023.7;;;17.9;84.8
45113;BME280;30873;53.908;27.576;2023-04-08T17:21:05;1023.8;;;17.7;87.4
45113;BME280;30873;53.908;27.576;2023-04-08T17:26:35;1023.8;;;17.5;90.5
45113;BME280;30873;53.908;27.576;2023-04-08T17:31:49;1023.9;;;17.3;92.2
45113;BME280;30873;53.908;27.576;2023-04-08T17:36:17;1023.9;;;17.2;93.6
45113;BME280;30873;53.908;27.576;2023-04-08T17:41:49;1023.9;;;17.1;94.9
45113;BME280;30873;53.908;27.576;2023-04-08T17:46:35;1024;;;16.9;96
45113;BME280;30873;53.908;27.576;2023-04-08T17:51:35;1024;;;16.8;97.1
45113;BME280;30873;53.908;27.576;2023-04-08T17:56:05;1024;;;16.6;98.4
45113;BME280;30873;53.908;27.576;2023-04-08T18:01:17;1024;;;16.6;99.4
45113;BME280;30873;53.908;27.576;2023-04-08T18:06:47;1024;;;16.5;99.9
45113;BME280;30873;53.908;27.576;2023-04-08T18:10:55;1024.1;;;16.4;100
45113;BME280;30873;53.908;27.576;2023-04-08T18:16:35;1024.1;;;16.4;100
45113;BME280;30873;53.908;27.576;2023-04-08T18:21:05;1024.1;;;16.3;100
45113;BME280;30873;53.908;27.576;2023-04-08T18:26:17;1024.2;;;16.3;100
45113;BME280;30873;53.908;27.576;2023-04-08T18:31:49;1024.2;;;16.3;100
45113;BME280;30873;53.908;27.576;2023-04-08T18:35:55;1024.2;;;16.3;100
45113;BME280;30873;53.908;27.576;2023-04-08T18:41:35;1024.2;;;16.3;100
45113;BME280;30873;53.908;27.576;2023-04-08T18:46:47;1024.2;;;16.3;100
45113;BME280;30873;53.908;27.576;2023-04-08T18:51:05;1024.3;;;16.2;100
45113;BME280;30873;53.908;27.576;2023-04-08T18:56:47;1024.2;;;16.2;100
45113;BME280;30873;53.908;27.576;2023-04-08T19:00:55;1024.2;;;16.1;100
45113;BME280;30873;53.908;27.576;2023-04-08T19:06:35;1024.3;;;16;100
45113;BME280;30873;53.908;27.576;2023-04-08T19:11:05;1024.3;;;16;100
45113;BME280;30873;53.908;27.576;2023-04-08T19:16:17;1024.3;;;16.1;100
45113;BME280;30873;53.908;27.576;2023-04-08T19:21:47;1024.3;;;16.1;100
45113;BME280;30873;53.908;27.576;2023-04-08T19:25:55;1024.3;;;16.1;100
45113;BME280;30873;53.908;27.576;2023-04-08T19:31:33;1024.3;;;16.1;100
45113;BME280;30873;53.908;27.576;2023-04-08T19:35:55;1024.3;;;16;100
45113;BME280;30873;53.908;27.576;2023-04-08T19:41:15;1024.3;;;15.9;100
45113;BME280;30873;53.908;27.576;2023-04-08T19:46:49;1024.4;;;15.8;100
45113;BME280;30873;53.908;27.576;2023-04-08T19:50:55;1024.4;;;15.7;100
45113;BME280;30873;53.908;27.576;2023-04-08T19:56:33;1024.4;;;15.6;100
45113;BME280;30873;53.908;27.576;2023-04-08T20:01:47;1024.4;;;15.5;100
45113;BME280;30873;53.908;27.576;2023-04-08T20:06:17;1024.4;;;15.5;100
45113;BME280;30873;53.908;27.576;2023-04-08T20:11:49;1024.4;;;15.4;100
45113;BME280;30873;53.908;27.576;2023-04-08T20:15:55;1024.4;;;15.5;100
45113;BME280;30873;53.908;27.576;2023-04-08T20:21:33;1024.4;;;15.5;100
45113;BME280;30873;53.908;27.576;2023-04-08T20:26:17;1024.4;;;15.6;100
45113;BME280;30873;53.908;27.576;2023-04-08T20:30:55;1024.3;;;15.7;100
45113;BME280;30873;53.908;27.576;2023-04-08T20:36:49;1024.3;;;15.7;100
45113;BME280;30873;53.908;27.576;2023-04-08T20:40:55;1024.3;;;15.7;100
45113;BME280;30873;53.908;27.576;2023-04-08T20:46:23;1024.3;;;15.5;100
45113;BME280;30873;53.908;27.576;2023-04-08T20:50:55;1024.3;;;15.4;100
45113;BME280;30873;53.908;27.576;2023-04-08T20:56:31;1024.3;;;15.4;100
45113;BME280;30873;53.908;27.576;2023-04-08T21:01:50;1024.3;;;15.3;100
45113;BME280;30873;53.908;27.576;2023-04-08T21:06:05;1024.3;;;15.3;100
45113;BME280;30873;53.908;27.576;2023-04-08T21:11:45;1024.3;;;15.2;100
45113;BME280;30873;53.908;27.576;2023-04-08T21:15:55;1024.4;;;15.2;100
45113;BME280;30873;53.908;27.576;2023-04-08T21:21:17;1024.4;;;15.1;100
45113;BME280;30873;53.908;27.576;2023-04-08T21:26:49;1024.4;;;15;100
45113;BME280;30873;53.908;27.576;2023-04-08T21:30:55;1024.4;;;15;100
45113;BME280;30873;53.908;27.576;2023-04-08T21:36:35;1024.4;;;14.9;100
45113;BME280;30873;53.908;27.576;2023-04-08T21:41:07;1024.4;;;14.8;100
45113;BME280;30873;53.908;27.576;2023-04-08T21:45:55;1024.5;;;14.8;100
45113;BME280;30873;53.908;27.576;2023-04-08T21:51:45;1024.5;;;14.7;100
45113;BME280;30873;53.908;27.576;2023-04-08T21:56:05;1024.5;;;14.6;100
45113;BME280;30873;53.908;27.576;2023-04-08T22:01:35;1024.5;;;14.5;100
45113;BME280;30873;53.908;27.576;2023-04-08T22:06:06;1024.5;;;14.4;100
45113;BME280;30873;53.908;27.576;2023-04-08T22:11:49;1024.5;;;14.3;100
45113;BME280;30873;53.908;27.576;2023-04-08T22:16:31;1024.5;;;14.2;100
45113;BME280;30873;53.908;27.576;2023-04-08T22:21:35;1024.5;;;14.1;100
45113;BME280;30873;53.908;27.576;2023-04-08T22:26:35;1024.5;;;14;100
45113;BME280;30873;53.908;27.576;2023-04-08T22:31:07;1024.5;;;13.9;100
45113;BME280;30873;53.908;27.576;2023-04-08T22:36:47;1024.6;;;13.8;100
45113;BME280;30873;53.908;27.576;2023-04-08T22:41:17;1024.5;;;13.7;100
45113;BME280;30873;53.908;27.576;2023-04-08T22:46:47;1024.5;;;13.6;100
45113;BME280;30873;53.908;27.576;2023-04-08T22:51:23;1024.5;;;13.6;100
45113;BME280;30873;53.908;27.576;2023-04-08T22:55:56;1024.5;;;13.5;100
45113;BME280;30873;53.908;27.576;2023-04-08T23:01:49;1024.5;;;13.5;100
45113;BME280;30873;53.908;27.576;2023-04-08T23:06:17;1024.5;;;13.5;100
45113;BME280;30873;53.908;27.576;2023-04-08T23:11:49;1024.5;;;13.5;100
45113;BME280;30873;53.908;27.576;2023-04-08T23:16:33;1024.5;;;13.6;100
45113;BME280;30873;53.908;27.576;2023-04-08T23:21:05;1024.5;;;13.6;100
45113;BME280;30873;53.908;27.576;2023-04-08T23:26:47;1024.5;;;13.7;100
45113;BME280;30873;53.908;27.576;2023-04-08T23:31:17;1024.5;;;13.8;100
45113;BME280;30873;53.908;27.576;2023-04-08T23:36:49;1024.5;;;13.8;100
45113;BME280;30873;53.908;27.576;2023-04-08T23:40:57;1024.5;;;13.8;100
45113;BME280;30873;53.908;27.576;2023-04-08T23:46:05;1024.5;;;13.8;100
45113;BME280;30873;53.908;27.576;2023-04-08T23:51:47;1024.5;;;13.8;100
45113;BME280;30873;53.908;27.576;2023-04-08T23:56:17;1024.4;;;13.7;100
